Startpagina
METAR-TAF:

METAR-TAF

Vliegvelden :

Zabol, Iran

breedte: 31-20N, lengte: 061-29E, hoogte: 489 m

Actueel weer

Dit bericht is 1 uur en het 2 minuten geleden gemaakt, om 04:00 UTC
Wind 4 kt uit het noordnoordwesten
Temperatuur 4°C
Vochtigheid 41%
Druk 1026 hPa
Zicht 10 km of meer
geen wolken onder 1500 m en geen cumulonimbus

METAR: OIZB 140400Z 33004KT CAVOK 04/M08 Q1026

Tijdstip: 08:32 (05:02 UTC)


TAF: ontbreekt

Waarnemingen en weersverwachtingen van meer dan 4000 vliegvelden (METAR en TAF).

De beschikbare stations zijn de gele en rode punten op de kaart.

Ga met uw muis naar het station om de naam te zien.

Klik dan om waarnemingen en weersverwachtingen te zien.

kaart wijzigen: klik op de groene knoppen met een zwart kruis om in te zoomen, op de groene knop met een streepje om uit te zoomen of op de groene pijlen voor aangrenzende kaarten.


METAR-TAF: